Coltman, Idaho
Current Conditions -  °F | °C
As of 10:00 PM on Friday 19 Dec 2014 (Local Time) from KIDA Reporting Station
Light Snow Light Snow  
Wind Chill: 26°   Ceiling: 400
Heat Index: 33°   Visibility: 3mi
Dew Point: 32°   Wind: 8mph
Humidity: 96%   Direction: 200°SSW
Pressure: 30.08"   Gusts: NA
Location:  43.498°N, 111.73°W
Report Text: KIDA 200500Z AUTO 20007KT 3SM -SN BR OVC004 01/00 A3008 RMK AO2 P0000 T00060000
Loading
Personal Weather Stations






























Interactive Weather Map New forecast layout! Learn more

10-Day Weather Forecast

Advertisements
Track Severe Weather on mobile